Cleburne, TX (76033)

6:59 PM CDT on August 28, 2015 (GMT -0500)
K5JBW | | Change Station
CLOSE
Current Station
Personal Weather Station
Location: Cleburne, TX
Elevation: 797 ft
Nearby Weather Stations

Elev 797 ft 32.33 °N, 97.40 °W | Updated 34 seconds ago

Clear
Clear
92.3 °F
Feels Like 96 °F
N
2.0
Wind Variable Wind from SSW
Gusts 5.0 mph

Today
High -- | Low -- °F
--% Chance of Precip.
Yesterday
High -- | Low -- °F
Precip. -- in
7:01 AM 7:59 PM
Waxing Gibbous, 99% visible
Pressure 29.93 in
Visibility 7.0 miles
Clouds Clear
Heat Index 96 °F
Dew Point 67 °F
Humidity 43%
Rainfall 0.00 in
Snow Depth Not available.
UV 1 out of 12
Pollen 8.10 out of 12
Air Quality Not available.
Flu Activity Not available.
METAR KFWS 282349Z 14007KT 7SM CLR 33/17 A2993
Pressure 29.93 in
Visibility 7.0 miles
Clouds Clear
Heat Index 96 °F
Dew Point 67 °F
Humidity 43%
Rainfall 0.00 in
Snow Depth Not available.
UV 1 out of 12
Pollen 8.10 out of 12
Air Quality Not available.
Flu Activity Not available.
METAR KFWS 282349Z 14007KT 7SM CLR 33/17 A2993

10-Day Weather Forecast

×

Almanac

Astronomy

Aug. 28, 2015 Rise Set
Actual Time
Civil Twilight
Nautical Twilight
Astronomical Twilight
Moon
Length of Visible Light
Length of Day
Tomorrow will be .
, % of the Moon is Illuminated

Today's Extremes

State Highs State Lows

Community

WunderPhotos

Upload Photos

1,850,532 photos uploaded!

WunderBlogs® & News

Nearby

Air Quality

  Air Quality AQ Index Pollutant
Not available.

Snow Depth

Station Depth Elevation

Earthquake Activity

City Distance Mag. Time & Date
Minimum magnitude displayed is 2.5.

Coastal Water Temperatures

Place Temperature

Stations

Nearby Weather Stations

Station Location Temp. Windchill Dew Point Humidity Wind Precip. Elev Updated Type